Time;durP1;ratioP1;P1;durP2;ratioP2;P2;SDS_P1;SDS_P2;PMS_P1;PMS_P2;Temp;Humidity;BMP_temperature;BMP_pressure;BME280_temperature;BME280_humidity;BME280_pressure;Samples;Min_cycle;Max_cycle;Signal;HPM_P1;HPM_P2
2023/09/19 00:02:06;;;;;;;;;14.60;14.00;;;;;24.06;100.00;98118.44;6241134;27;96561;-61
2023/09/19 00:05:10;;;;;;;;;13.00;11.40;;;;;24.09;100.00;98118.59;6221564;27;96608;-62
2023/09/19 00:08:14;;;;;;;;;10.00;10.00;;;;;24.09;100.00;98123.31;6203806;28;96670;-61
2023/09/19 00:11:17;;;;;;;;;13.00;12.00;;;;;24.11;100.00;98115.53;6231983;27;96379;-60
2023/09/19 00:14:26;;;;;;;;;13.00;12.60;;;;;24.19;100.00;98111.16;6253194;27;96560;-62
2023/09/19 00:17:31;;;;;;;;;13.40;11.40;;;;;24.23;100.00;98110.19;6222436;28;96882;-61
2023/09/19 00:20:36;;;;;;;;;10.60;10.40;;;;;24.24;100.00;98113.75;6256879;27;96373;-61
2023/09/19 00:23:41;;;;;;;;;11.60;11.00;;;;;24.21;100.00;98109.69;6228432;28;96306;-61
2023/09/19 00:26:47;;;;;;;;;12.00;11.00;;;;;24.26;100.00;98116.97;6227817;28;98465;-61
2023/09/19 00:29:52;;;;;;;;;11.20;10.80;;;;;24.32;100.00;98121.97;6245830;28;96706;-60
2023/09/19 00:32:56;;;;;;;;;14.60;13.00;;;;;24.37;100.00;98109.97;6250772;27;97439;-61
2023/09/19 00:36:01;;;;;;;;;13.20;12.80;;;;;24.40;100.00;98110.09;6254073;27;96681;-60
2023/09/19 00:39:06;;;;;;;;;13.00;12.00;;;;;24.40;100.00;98112.84;6254847;27;96286;-61
2023/09/19 00:42:09;;;;;;;;;14.00;13.00;;;;;24.40;100.00;98112.03;6237346;28;98588;-61
2023/09/19 00:45:16;;;;;;;;;11.40;10.60;;;;;24.34;100.00;98116.13;6245650;27;98018;-61
2023/09/19 00:48:20;;;;;;;;;15.33;14.00;;;;;24.38;100.00;98114.34;6230022;27;97556;-61
2023/09/19 00:51:25;;;;;;;;;13.60;13.00;;;;;24.34;100.00;98110.59;6221444;27;96379;-61
2023/09/19 00:54:28;;;;;;;;;12.00;12.00;;;;;24.38;100.00;98114.34;6202776;28;96411;-60
2023/09/19 00:57:33;;;;;;;;;18.40;16.00;;;;;24.26;100.00;98094.94;6243281;27;96299;-60
2023/09/19 01:00:39;;;;;;;;;16.33;15.33;;;;;24.30;100.00;98110.47;6271644;27;96257;-60
2023/09/19 01:03:43;;;;;;;;;14.00;12.00;;;;;24.26;100.00;98112.25;6253880;27;96380;-61
2023/09/19 01:06:53;;;;;;;;;12.60;11.60;;;;;24.00;100.00;98120.56;6247497;27;96270;-60
2023/09/19 01:09:58;;;;;;;;;11.25;10.00;;;;;23.87;100.00;98118.00;6256552;27;96395;-61
2023/09/19 01:13:11;;;;;;;;;13.20;12.20;;;;;23.72;100.00;98114.63;6248249;28;96598;-61
2023/09/19 01:16:23;;;;;;;;;14.00;12.00;;;;;23.59;100.00;98095.56;6224059;27;98685;-61
2023/09/19 01:19:55;;;;;;;;;13.60;11.00;;;;;23.33;100.00;98096.34;6257440;27;98479;-61
2023/09/19 01:23:11;;;;;;;;;14.80;14.00;;;;;23.28;100.00;98085.50;6221531;28;96489;-61
2023/09/19 01:26:40;;;;;;;;;13.00;12.00;;;;;23.20;100.00;98083.59;6225157;27;96759;-61
2023/09/19 01:29:46;;;;;;;;;14.80;13.80;;;;;23.18;100.00;98063.84;6242582;27;96770;-62
2023/09/19 01:32:53;;;;;;;;;15.60;13.00;;;;;23.17;100.00;98064.97;6240140;28;98539;-61
2023/09/19 01:35:58;;;;;;;;;11.75;10.00;;;;;23.17;100.00;98067.72;6237821;27;99191;-61
2023/09/19 01:39:05;;;;;;;;;13.00;12.00;;;;;23.14;100.00;98059.31;6254810;27;96309;-61
2023/09/19 01:42:22;;;;;;;;;13.67;13.00;;;;;23.09;100.00;98063.03;6243164;27;96300;-61
2023/09/19 01:45:34;;;;;;;;;12.00;11.00;;;;;23.06;100.00;98068.38;6215354;27;96396;-61
2023/09/19 01:48:47;;;;;;;;;12.60;12.00;;;;;23.06;100.00;98063.69;6221201;27;96679;-61
2023/09/19 01:51:57;;;;;;;;;13.00;11.50;;;;;22.99;100.00;98048.78;6211080;28;97452;-61
2023/09/19 01:55:10;;;;;;;;;13.00;13.00;;;;;22.88;100.00;98054.59;6219890;27;96686;-60
2023/09/19 01:58:22;;;;;;;;;12.60;11.40;;;;;22.86;100.00;98039.56;6265272;27;96339;-61
2023/09/19 02:01:27;;;;;;;;;12.00;11.20;;;;;22.76;100.00;98048.13;6229469;28;96845;-61
2023/09/19 02:04:34;;;;;;;;;11.00;9.20;;;;;22.44;100.00;98041.88;6229885;28;98604;-61
2023/09/19 02:07:40;;;;;;;;;11.00;10.00;;;;;22.15;100.00;98049.06;6251050;27;96745;-61
2023/09/19 02:10:46;;;;;;;;;11.00;11.00;;;;;21.99;100.00;98037.72;6258474;27;98463;-61
2023/09/19 02:13:54;;;;;;;;;12.00;11.00;;;;;21.90;100.00;98028.56;6275118;27;96550;-61
2023/09/19 02:16:58;;;;;;;;;10.40;10.40;;;;;21.84;100.00;98024.38;6244177;28;96319;-61
2023/09/19 02:20:10;;;;;;;;;13.60;13.00;;;;;21.84;100.00;98022.44;6215658;27;98426;-61
2023/09/19 02:23:15;;;;;;;;;14.60;14.00;;;;;21.88;100.00;98019.88;6251999;28;96706;-61
2023/09/19 02:26:19;;;;;;;;;12.00;11.40;;;;;21.98;100.00;98025.91;6260944;27;96333;-61
2023/09/19 02:29:23;;;;;;;;;11.40;9.80;;;;;22.14;100.00;98015.31;6213235;28;98428;-61
2023/09/19 02:32:26;;;;;;;;;11.20;10.20;;;;;22.32;100.00;98021.66;6242465;27;99133;-61
2023/09/19 02:35:35;;;;;;;;;12.00;12.00;;;;;22.43;100.00;98018.28;6279144;27;96262;-62
2023/09/19 02:38:38;;;;;;;;;16.25;13.00;;;;;22.56;100.00;98021.25;6250381;28;99037;-61
2023/09/19 02:41:42;;;;;;;;;13.80;11.20;;;;;22.64;100.00;98017.69;6236191;28;98615;-61
2023/09/19 02:44:46;;;;;;;;;14.00;13.50;;;;;22.71;100.00;98009.81;6254572;27;96328;-61
2023/09/19 02:47:50;;;;;;;;;13.00;11.75;;;;;22.73;100.00;98007.53;6273980;27;96276;-61
2023/09/19 02:50:54;;;;;;;;;12.00;11.40;;;;;22.77;100.00;98005.78;6221413;28;99489;-61
2023/09/19 02:53:57;;;;;;;;;12.00;12.00;;;;;22.81;100.00;97993.81;6236995;28;96408;-61
2023/09/19 02:57:00;;;;;;;;;13.60;12.00;;;;;22.81;100.00;97995.75;6248677;27;96740;-61
2023/09/19 03:00:07;;;;;;;;;13.00;11.25;;;;;22.81;100.00;97988.34;6237117;27;96522;-62
2023/09/19 03:03:11;;;;;;;;;13.50;12.50;;;;;22.85;100.00;97992.03;6211455;28;96728;-61
2023/09/19 03:06:19;;;;;;;;;11.33;11.00;;;;;22.91;100.00;97984.44;6224893;27;96940;-61
2023/09/19 03:09:23;;;;;;;;;13.20;10.80;;;;;22.92;100.00;97982.50;6246264;27;98705;-61
2023/09/19 03:12:26;;;;;;;;;12.60;11.60;;;;;22.94;100.00;97970.06;6279803;27;96891;-61
2023/09/19 03:15:30;;;;;;;;;14.67;13.00;;;;;22.97;100.00;97958.41;6279423;27;96385;-61
2023/09/19 03:18:35;;;;;;;;;15.00;12.80;;;;;23.01;100.00;97966.81;6247165;27;96437;-61
2023/09/19 03:21:40;;;;;;;;;14.00;11.00;;;;;23.01;100.00;97959.38;6226972;27;96693;-61
2023/09/19 03:24:44;;;;;;;;;11.00;11.00;;;;;23.02;100.00;97954.69;6229696;28;96331;-61
2023/09/19 03:27:48;;;;;;;;;15.00;14.00;;;;;22.96;100.00;97948.56;6236008;28;96298;-61
2023/09/19 03:31:03;;;;;;;;;15.50;13.50;;;;;22.97;100.00;97947.41;6226869;27;96202;-62
2023/09/19 03:34:08;;;;;;;;;13.25;12.25;;;;;22.96;100.00;97939.50;6278492;27;96277;-61
2023/09/19 03:37:14;;;;;;;;;13.00;13.00;;;;;22.97;100.00;97938.38;6275642;27;96937;-62
2023/09/19 03:40:20;;;;;;;;;13.00;13.00;;;;;22.87;100.00;97920.28;6238523;28;96650;-61
2023/09/19 03:43:23;;;;;;;;;14.00;13.00;;;;;22.88;100.00;97935.59;6240560;28;96448;-61
2023/09/19 03:46:27;;;;;;;;;13.20;12.20;;;;;22.89;100.00;97931.72;6238892;27;96499;-61
2023/09/19 03:49:31;;;;;;;;;14.60;12.00;;;;;22.91;100.00;97929.47;6233941;28;98562;-61
2023/09/19 03:52:36;;;;;;;;;12.20;10.60;;;;;22.91;100.00;97929.47;6222267;28;96348;-61
2023/09/19 03:55:39;;;;;;;;;13.40;12.40;;;;;22.92;100.00;97924.78;6225729;27;96855;-62
2023/09/19 03:58:42;;;;;;;;;13.00;12.40;;;;;22.88;100.00;97917.19;6230821;28;96415;-62
2023/09/19 04:01:46;;;;;;;;;13.00;11.20;;;;;22.88;100.00;97928.19;6233037;27;96383;-61
2023/09/19 04:04:50;;;;;;;;;12.40;11.40;;;;;22.89;100.00;97929.00;6232467;28;96741;-61
2023/09/19 04:07:54;;;;;;;;;14.00;13.00;;;;;22.87;100.00;97914.78;6236399;27;97580;-61
2023/09/19 04:10:57;;;;;;;;;15.00;13.25;;;;;22.86;100.00;97904.91;6212893;27;96732;-62
2023/09/19 04:14:04;;;;;;;;;16.40;15.40;;;;;22.88;100.00;97902.63;6225748;28;96361;-63
2023/09/19 04:17:07;;;;;;;;;16.20;14.80;;;;;22.89;100.00;97905.06;6228950;28;96618;-61
2023/09/19 04:20:13;;;;;;;;;15.40;15.00;;;;;22.92;100.00;97905.56;6211436;27;98411;-62
2023/09/19 04:23:19;;;;;;;;;19.00;18.00;;;;;22.93;100.00;97905.22;6228797;27;96653;-61
2023/09/19 04:26:23;;;;;;;;;17.60;16.60;;;;;22.93;100.00;97901.66;6246925;27;96329;-61
2023/09/19 04:29:29;;;;;;;;;20.00;18.40;;;;;22.94;100.00;97904.09;6247967;27;96791;-61
2023/09/19 04:32:33;;;;;;;;;18.60;18.60;;;;;22.94;100.00;97900.53;6246562;27;96287;-61
2023/09/19 04:35:38;;;;;;;;;19.50;17.50;;;;;22.94;100.00;97906.03;6223756;27;98542;-61
2023/09/19 04:38:43;;;;;;;;;19.40;17.00;;;;;22.93;100.00;97907.16;6229199;28;98832;-62
2023/09/19 04:41:49;;;;;;;;;18.20;18.20;;;;;22.94;100.00;97893.09;6240619;27;97091;-61
2023/09/19 04:44:53;;;;;;;;;18.60;16.00;;;;;22.96;100.00;97899.09;6231895;27;96679;-60
2023/09/19 04:47:56;;;;;;;;;18.00;16.00;;;;;22.96;100.00;97890.84;6227922;27;97431;-61
2023/09/19 04:51:00;;;;;;;;;16.60;14.60;;;;;22.98;100.00;97905.03;6224325;28;96303;-61
2023/09/19 04:54:05;;;;;;;;;17.00;15.40;;;;;22.96;100.00;97904.56;6235746;28;96181;-61
2023/09/19 04:57:08;;;;;;;;;19.00;18.00;;;;;23.01;100.00;97903.59;6248919;27;96252;-61
2023/09/19 05:00:14;;;;;;;;;17.40;17.00;;;;;23.05;100.00;97910.06;6227239;28;96984;-62
2023/09/19 05:03:17;;;;;;;;;19.20;17.80;;;;;23.04;100.00;97914.75;6229320;28;96379;-61
2023/09/19 05:06:22;;;;;;;;;18.20;16.20;;;;;23.00;100.00;97911.03;6222629;28;96862;-61
2023/09/19 05:09:27;;;;;;;;;17.25;15.25;;;;;23.06;100.00;97926.22;6239353;27;96547;-62
2023/09/19 05:12:30;;;;;;;;;17.50;15.50;;;;;23.07;100.00;97919.56;6255168;27;97014;-61
2023/09/19 05:15:36;;;;;;;;;16.20;15.00;;;;;23.00;100.00;97916.53;6229606;27;97225;-61
2023/09/19 05:18:40;;;;;;;;;18.00;14.75;;;;;23.09;100.00;97928.31;6214846;27;97320;-61
2023/09/19 05:21:43;;;;;;;;;17.00;16.00;;;;;23.16;100.00;97925.06;6206919;28;99960;-61
2023/09/19 05:24:48;;;;;;;;;16.40;15.00;;;;;23.14;100.00;97925.41;6231233;27;97180;-61
2023/09/19 05:27:54;;;;;;;;;17.00;16.00;;;;;23.11;100.00;97926.06;6226591;28;96480;-61
2023/09/19 05:31:01;;;;;;;;;17.00;16.00;;;;;23.05;100.00;97921.06;6232925;28;96390;-62
2023/09/19 05:34:11;;;;;;;;;22.00;19.75;;;;;23.09;100.00;97925.56;6243152;27;96387;-61
2023/09/19 05:37:16;;;;;;;;;19.25;16.25;;;;;23.06;100.00;97933.66;6238691;27;96824;-61
2023/09/19 05:40:22;;;;;;;;;20.20;19.00;;;;;23.13;100.00;97937.53;6192370;28;96990;-61
2023/09/19 05:43:26;;;;;;;;;22.00;20.00;;;;;23.08;100.00;97936.88;6244542;27;96955;-61
2023/09/19 05:46:30;;;;;;;;;19.50;18.50;;;;;23.12;100.00;97946.09;6274847;27;96399;-61
2023/09/19 05:49:33;;;;;;;;;18.00;17.00;;;;;23.12;100.00;97943.34;6230900;27;97256;-61
2023/09/19 05:52:37;;;;;;;;;20.00;17.50;;;;;23.09;100.00;97944.81;6233029;27;97971;-61
2023/09/19 05:55:42;;;;;;;;;20.20;17.20;;;;;23.04;100.00;97927.69;6261973;27;96457;-61
2023/09/19 05:58:45;;;;;;;;;18.00;15.00;;;;;23.09;100.00;97947.56;6244482;28;96388;-61
2023/09/19 06:01:48;;;;;;;;;20.60;18.00;;;;;23.07;100.00;97944.31;6248570;28;96416;-61
2023/09/19 06:04:52;;;;;;;;;21.75;20.00;;;;;23.09;100.00;97944.00;6216461;28;98602;-61
2023/09/19 06:07:59;;;;;;;;;20.00;19.00;;;;;23.08;100.00;97945.13;6205354;28;98215;-61
2023/09/19 06:11:09;;;;;;;;;19.40;18.40;;;;;23.06;100.00;97947.41;6246028;28;96750;-61
2023/09/19 06:14:12;;;;;;;;;20.00;19.00;;;;;23.05;100.00;97943.84;6196706;28;96863;-61
2023/09/19 06:17:15;;;;;;;;;21.80;20.60;;;;;23.07;100.00;97947.06;6209508;28;98487;-61
2023/09/19 06:20:19;;;;;;;;;20.00;17.25;;;;;23.12;100.00;97941.41;6223182;28;97428;-62
2023/09/19 06:23:28;;;;;;;;;16.20;15.00;;;;;23.11;100.00;97937.06;6217102;28;96286;-62
2023/09/19 06:26:33;;;;;;;;;16.00;16.00;;;;;23.20;100.00;97943.34;6220553;28;96157;-62
2023/09/19 06:29:37;;;;;;;;;16.00;15.00;;;;;23.21;100.00;97941.41;6201395;28;96967;-61
2023/09/19 06:32:43;;;;;;;;;16.60;13.60;;;;;23.23;100.00;97944.63;6179928;28;96886;-64
2023/09/19 06:35:47;;;;;;;;;16.00;15.00;;;;;23.23;100.00;97947.38;6220009;28;97682;-68
2023/09/19 06:38:52;;;;;;;;;15.50;14.50;;;;;23.08;100.00;97953.38;6212015;28;96709;-64
2023/09/19 06:41:56;;;;;;;;;18.00;17.00;;;;;23.03;100.00;97951.59;6222831;28;96926;-63
2023/09/19 06:45:00;;;;;;;;;14.00;13.50;;;;;22.98;100.00;97953.72;6231180;28;96616;-63
2023/09/19 06:48:05;;;;;;;;;15.40;14.00;;;;;22.89;100.00;97954.53;6234525;28;96154;-63
2023/09/19 06:51:09;;;;;;;;;16.00;14.60;;;;;22.87;100.00;97961.50;6208835;28;96863;-64
2023/09/19 06:54:17;;;;;;;;;20.60;18.40;;;;;22.64;100.00;97927.03;6203165;28;97173;-64
2023/09/19 06:57:23;;;;;;;;;16.00;15.00;;;;;22.48;100.00;97923.94;6203991;28;96378;-64
2023/09/19 07:00:28;;;;;;;;;18.00;17.00;;;;;22.64;100.00;97965.47;6217576;28;96970;-66
2023/09/19 07:03:33;;;;;;;;;19.00;16.40;;;;;22.60;100.00;97962.59;6221349;28;96378;-66
2023/09/19 07:06:37;;;;;;;;;19.40;17.60;;;;;22.57;100.00;97943.19;6217979;28;96830;-66
2023/09/19 07:09:48;;;;;;;;;17.00;15.00;;;;;22.64;100.00;97960.00;6224460;28;97078;-62
2023/09/19 07:12:58;;;;;;;;;16.75;14.75;;;;;22.66;100.00;97969.53;6235189;27;96944;-63
2023/09/19 07:16:01;;;;;;;;;18.00;17.00;;;;;22.65;100.00;97965.16;6241634;27;96358;-63
2023/09/19 07:19:04;;;;;;;;;19.00;17.00;;;;;22.68;100.00;97960.97;6231724;28;98975;-64
2023/09/19 07:22:07;;;;;;;;;20.00;18.00;;;;;22.70;100.00;97956.81;6248781;28;96481;-63
2023/09/19 07:25:11;;;;;;;;;17.20;17.20;;;;;22.65;100.00;97961.63;6245034;27;96445;-64
2023/09/19 07:28:16;;;;;;;;;18.00;17.00;;;;;22.66;100.00;97966.78;6217260;28;96433;-64
2023/09/19 07:31:19;;;;;;;;;18.00;17.00;;;;;22.72;100.00;97975.72;6226726;28;96388;-64
2023/09/19 07:34:23;;;;;;;;;18.60;17.60;;;;;22.75;100.00;97973.13;6253529;27;97085;-63
2023/09/19 07:37:26;;;;;;;;;19.40;18.00;;;;;22.81;100.00;97977.34;6268637;27;96746;-63
2023/09/19 07:40:30;;;;;;;;;13.80;12.80;;;;;22.83;100.00;97977.00;6248902;28;96624;-62
2023/09/19 07:43:34;;;;;;;;;14.40;13.40;;;;;22.83;100.00;97985.25;6249052;27;96392;-64
2023/09/19 07:46:38;;;;;;;;;15.75;15.00;;;;;22.84;100.00;97987.69;6232899;28;96591;-64
2023/09/19 07:49:47;;;;;;;;;16.20;14.40;;;;;22.73;100.00;97980.06;6228138;27;96659;-65
2023/09/19 07:52:52;;;;;;;;;16.00;15.00;;;;;22.72;100.00;97983.97;6236380;27;99176;-63
2023/09/19 07:56:03;;;;;;;;;14.60;14.60;;;;;22.76;100.00;97979.44;6258246;27;96605;-64
2023/09/19 07:59:08;;;;;;;;;16.00;14.00;;;;;22.78;100.00;97985.41;6242283;27;96446;-64
2023/09/19 08:02:15;;;;;;;;;13.00;13.00;;;;;22.75;100.00;97992.38;6239748;27;96365;-64
2023/09/19 08:05:20;;;;;;;;;13.40;11.40;;;;;22.65;100.00;97991.84;6240089;27;96298;-63
2023/09/19 08:08:24;;;;;;;;;10.00;10.00;;;;;22.55;100.00;97992.97;6259716;27;96349;-64
2023/09/19 08:11:30;;;;;;;;;11.00;10.60;;;;;22.55;100.00;97998.44;6247747;27;98476;-64
2023/09/19 08:14:35;;;;;;;;;9.25;8.75;;;;;22.51;100.00;97997.47;6242292;27;96872;-64
2023/09/19 08:17:38;;;;;;;;;6.00;5.00;;;;;22.37;100.00;98003.13;6247401;27;96410;-64
2023/09/19 08:20:42;;;;;;;;;7.80;7.00;;;;;22.24;100.00;98009.53;6229517;28;96689;-64
2023/09/19 08:23:45;;;;;;;;;9.00;8.50;;;;;22.15;100.00;98016.09;6228930;27;98933;-64
2023/09/19 08:26:54;;;;;;;;;5.00;4.50;;;;;21.99;100.00;98004.78;6230263;28;96846;-63
2023/09/19 08:30:02;;;;;;;;;4.80;4.00;;;;;21.97;100.00;98018.00;6248780;28;96281;-64
2023/09/19 08:33:07;;;;;;;;;5.00;5.00;;;;;21.95;100.00;98022.97;6248453;28;97017;-64
2023/09/19 08:36:14;;;;;;;;;5.00;4.25;;;;;22.00;100.00;98031.88;6248129;27;96462;-64
2023/09/19 08:39:18;;;;;;;;;5.00;5.00;;;;;21.96;100.00;98038.31;6252749;27;96766;-64
2023/09/19 08:42:25;;;;;;;;;5.00;4.00;;;;;21.97;100.00;98040.75;6256920;27;96530;-63
2023/09/19 08:45:32;;;;;;;;;5.00;5.00;;;;;21.88;100.00;98045.38;6239452;27;96752;-64
2023/09/19 08:48:40;;;;;;;;;6.00;5.00;;;;;21.98;100.00;98053.38;6237558;27;96655;-64
2023/09/19 08:51:45;;;;;;;;;6.00;5.00;;;;;21.89;100.00;98057.94;6255127;27;96865;-64
2023/09/19 08:54:52;;;;;;;;;5.00;4.00;;;;;21.98;100.00;98063.53;6272307;27;96518;-64
2023/09/19 08:58:01;;;;;;;;;4.00;4.00;;;;;21.97;100.00;98072.88;6254405;27;97765;-64
2023/09/19 09:01:06;;;;;;;;;5.00;5.00;;;;;21.95;100.00;98086.09;6272084;27;96394;-63
2023/09/19 09:04:13;;;;;;;;;5.00;5.00;;;;;21.77;100.00;98068.72;6253172;27;98450;-64
2023/09/19 09:07:18;;;;;;;;;3.00;3.00;;;;;21.87;100.00;98082.16;6272521;27;96590;-64
2023/09/19 09:10:22;;;;;;;;;4.00;4.00;;;;;21.74;100.00;98085.81;6271308;27;96922;-64
2023/09/19 09:13:26;;;;;;;;;6.00;6.00;;;;;21.79;100.00;98096.66;6254795;27;96304;-64
2023/09/19 09:16:31;;;;;;;;;5.00;4.00;;;;;21.89;100.00;98101.06;6273437;27;96913;-64
2023/09/19 09:19:34;;;;;;;;;6.00;5.00;;;;;21.89;100.00;98103.81;6256382;27;97812;-64
2023/09/19 09:22:39;;;;;;;;;6.75;6.00;;;;;21.94;100.00;98109.19;6263622;27;96526;-63
2023/09/19 09:25:56;;;;;;;;;5.25;4.25;;;;;21.88;100.00;98111.22;6258823;27;96272;-63
2023/09/19 09:28:59;;;;;;;;;8.00;8.00;;;;;21.88;100.00;98118.66;6259765;27;96589;-64
2023/09/19 09:32:22;;;;;;;;;4.00;3.60;;;;;21.81;100.00;98121.00;6247206;28;96329;-64
2023/09/19 09:35:27;;;;;;;;;3.00;3.00;;;;;21.89;100.00;98129.28;6265603;27;96446;-65
2023/09/19 09:38:43;;;;;;;;;5.75;5.75;;;;;21.84;100.00;98134.94;6270982;27;96294;-65
2023/09/19 09:41:47;;;;;;;;;4.00;4.00;;;;;21.76;100.00;98132.13;6227568;28;96387;-64
2023/09/19 09:45:16;;;;;;;;;5.00;4.25;;;;;21.78;100.00;98144.41;6213092;27;96845;-63
2023/09/19 09:48:31;;;;;;;;;5.00;5.00;;;;;21.95;100.00;98143.72;6246303;28;96829;-63
2023/09/19 09:51:34;;;;;;;;;5.00;5.00;;;;;21.95;100.00;98151.97;6214214;27;96858;-63
2023/09/19 09:54:37;;;;;;;;;5.40;5.00;;;;;21.90;100.00;98157.53;6239401;27;97701;-64
2023/09/19 09:57:44;;;;;;;;;4.00;4.00;;;;;21.89;100.00;98161.44;6256395;27;96484;-64
2023/09/19 10:00:57;;;;;;;;;4.00;3.00;;;;;21.90;100.00;98172.09;6260621;27;96600;-63
2023/09/19 10:04:01;;;;;;;;;6.00;6.00;;;;;21.82;100.00;98172.84;6227195;28;96598;-63
2023/09/19 10:07:11;;;;;;;;;5.80;5.40;;;;;21.96;100.00;98173.63;6226719;28;96285;-63
2023/09/19 10:10:16;;;;;;;;;6.67;5.00;;;;;21.88;100.00;98177.09;6227172;28;96301;-63
2023/09/19 10:13:23;;;;;;;;;6.00;6.00;;;;;21.89;100.00;98175.16;6232804;28;96127;-63
2023/09/19 10:16:28;;;;;;;;;5.00;5.00;;;;;21.61;100.00;98166.22;6200728;28;97381;-62
2023/09/19 10:19:46;;;;;;;;;5.00;5.00;;;;;21.82;100.00;98191.25;6195886;28;96855;-63
2023/09/19 10:22:57;;;;;;;;;3.80;3.80;;;;;21.87;100.00;98191.94;6232456;28;96821;-63
2023/09/19 10:26:02;;;;;;;;;4.00;3.00;;;;;22.04;100.00;98186.56;6249372;28;96692;-63
2023/09/19 10:29:09;;;;;;;;;5.00;5.00;;;;;22.18;100.00;98191.19;6236574;28;96261;-63
2023/09/19 10:32:19;;;;;;;;;4.00;4.00;;;;;22.17;100.00;98195.88;6231712;28;96756;-63
2023/09/19 10:35:24;;;;;;;;;4.40;4.00;;;;;22.26;100.00;98195.91;6234636;28;96745;-63
2023/09/19 10:38:28;;;;;;;;;4.00;3.33;;;;;22.24;100.00;98189.91;6248075;28;96375;-63
2023/09/19 10:41:40;;;;;;;;;4.00;4.00;;;;;22.37;100.00;98192.59;6245611;28;96428;-63
2023/09/19 10:44:47;;;;;;;;;4.00;4.00;;;;;22.26;100.00;98199.47;6244108;28;98619;-63
2023/09/19 10:47:52;;;;;;;;;4.00;4.00;;;;;22.28;100.00;98202.72;6216332;28;96336;-63
2023/09/19 10:51:04;;;;;;;;;4.00;4.00;;;;;22.43;100.00;98216.03;6220266;28;96485;-64
2023/09/19 10:54:13;;;;;;;;;4.00;4.00;;;;;22.50;100.00;98214.78;6221694;28;98564;-63
2023/09/19 10:57:21;;;;;;;;;5.00;5.00;;;;;22.55;100.00;98214.66;6211769;28;96372;-63
2023/09/19 11:00:27;;;;;;;;;4.00;4.00;;;;;22.49;100.00;98219.47;6230488;28;96297;-64
2023/09/19 11:03:33;;;;;;;;;5.00;4.00;;;;;22.67;100.00;98228.63;6236918;28;96658;-66
2023/09/19 11:06:41;;;;;;;;;4.00;4.00;;;;;22.61;100.00;98225.19;6226941;28;96296;-63
2023/09/19 11:09:50;;;;;;;;;5.80;5.80;;;;;22.48;100.00;98225.28;6253882;27;96863;-63
2023/09/19 11:12:56;;;;;;;;;5.75;5.75;;;;;22.56;100.00;98236.31;6208397;28;96712;-63
2023/09/19 11:16:05;;;;;;;;;3.00;3.00;;;;;22.61;100.00;98232.63;6246868;27;96850;-63
2023/09/19 11:19:10;;;;;;;;;6.00;5.40;;;;;22.66;100.00;98238.81;6257426;27;97578;-63
2023/09/19 11:22:22;;;;;;;;;6.00;6.00;;;;;22.67;100.00;98242.34;6237404;27;96642;-63
2023/09/19 11:25:47;;;;;;;;;5.00;5.00;;;;;22.60;100.00;98244.72;6245579;27;97045;-63
2023/09/19 11:29:25;;;;;;;;;6.00;5.75;;;;;22.62;100.00;98242.50;6237516;27;96362;-63
2023/09/19 11:33:01;;;;;;;;;6.20;6.20;;;;;22.54;100.00;98244.06;6257510;27;96997;-63
2023/09/19 11:36:06;;;;;;;;;6.00;6.00;;;;;22.41;100.00;98250.44;6243148;27;96386;-63
2023/09/19 11:39:26;;;;;;;;;5.00;5.00;;;;;22.38;100.00;98242.84;6260646;27;96416;-64
2023/09/19 11:42:44;;;;;;;;;4.60;4.20;;;;;22.47;100.00;98260.19;6258381;27;96460;-63
2023/09/19 11:46:09;;;;;;;;;4.00;4.00;;;;;22.49;100.00;98255.19;6237650;27;96536;-63
2023/09/19 11:49:15;;;;;;;;;5.00;5.00;;;;;22.47;100.00;98262.94;6213881;27;96768;-64
2023/09/19 11:52:24;;;;;;;;;9.00;8.20;;;;;22.40;100.00;98263.38;6242619;28;96835;-62
2023/09/19 11:55:32;;;;;;;;;6.33;6.33;;;;;22.39;100.00;98263.66;6217604;27;97293;-63
2023/09/19 11:58:37;;;;;;;;;4.40;4.40;;;;;22.30;100.00;98258.13;6221071;27;98996;-63
2023/09/19 12:01:53;;;;;;;;;5.00;5.00;;;;;22.29;100.00;98266.66;6247213;27;98930;-63
2023/09/19 12:04:57;;;;;;;;;8.40;8.00;;;;;22.29;100.00;98259.25;6211192;28;96786;-64
2023/09/19 12:08:07;;;;;;;;;7.00;7.00;;;;;22.22;100.00;98261.63;6232868;27;96395;-62
2023/09/19 12:11:16;;;;;;;;;7.00;6.80;;;;;22.21;100.00;98260.00;6240550;27;96625;-62
2023/09/19 12:14:24;;;;;;;;;5.50;5.00;;;;;22.22;100.00;98267.13;6236661;28;96393;-64
2023/09/19 12:17:36;;;;;;;;;7.60;7.00;;;;;22.20;100.00;98268.56;6219135;28;98473;-63
2023/09/19 12:20:46;;;;;;;;;6.00;6.00;;;;;22.21;100.00;98271.00;6249347;27;96223;-62
2023/09/19 12:24:05;;;;;;;;;8.00;7.00;;;;;22.13;100.00;98262.72;6250472;27;96296;-63
2023/09/19 12:27:11;;;;;;;;;8.25;8.00;;;;;22.18;100.00;98279.88;6238109;27;96810;-63
2023/09/19 12:30:17;;;;;;;;;6.25;6.25;;;;;22.17;100.00;98272.75;6249299;27;96305;-64
2023/09/19 12:33:25;;;;;;;;;7.00;6.50;;;;;22.23;100.00;98265.19;6238521;28;97368;-63
2023/09/19 12:36:30;;;;;;;;;5.00;5.00;;;;;22.31;100.00;98278.16;6251765;27;96340;-64
2023/09/19 12:39:35;;;;;;;;;8.00;6.00;;;;;22.36;100.00;98281.59;6217813;28;98690;-62
2023/09/19 12:42:41;;;;;;;;;6.00;5.75;;;;;22.31;100.00;98278.16;6237989;28;96736;-63
2023/09/19 12:45:44;;;;;;;;;6.20;6.20;;;;;22.29;100.00;98283.16;6243974;27;98779;-63
2023/09/19 12:48:48;;;;;;;;;6.40;6.40;;;;;22.28;100.00;98268.63;6214923;28;97004;-63
2023/09/19 12:51:58;;;;;;;;;5.00;5.00;;;;;22.34;100.00;98285.78;6242989;28;96510;-63
2023/09/19 12:55:04;;;;;;;;;8.00;7.00;;;;;22.35;100.00;98274.47;6247697;27;96599;-63
2023/09/19 12:58:15;;;;;;;;;7.80;7.00;;;;;22.31;100.00;98278.16;6241784;27;96330;-63
2023/09/19 13:01:18;;;;;;;;;4.00;4.00;;;;;22.43;100.00;98272.94;6228299;28;97674;-64
2023/09/19 13:04:28;;;;;;;;;6.00;5.00;;;;;22.46;100.00;98277.78;6208890;28;96700;-63
2023/09/19 13:07:43;;;;;;;;;6.00;5.00;;;;;22.52;100.00;98284.78;6221026;28;97021;-63
2023/09/19 13:11:06;;;;;;;;;6.00;5.75;;;;;22.55;100.00;98278.66;6227684;28;98615;-63
2023/09/19 13:14:19;;;;;;;;;6.00;4.00;;;;;22.66;100.00;98285.50;6245157;28;96284;-63
2023/09/19 13:17:23;;;;;;;;;7.00;6.80;;;;;22.68;100.00;98296.16;6229942;28;96295;-63
2023/09/19 13:20:28;;;;;;;;;6.60;5.00;;;;;22.81;100.00;98295.31;6236673;28;96886;-63
2023/09/19 13:23:32;;;;;;;;;7.00;6.40;;;;;22.81;100.00;98293.38;6250654;28;96296;-63
2023/09/19 13:26:35;;;;;;;;;6.60;6.60;;;;;22.89;100.00;98289.03;6240966;28;96434;-63
2023/09/19 13:29:39;;;;;;;;;7.75;5.00;;;;;23.00;100.00;98298.63;6214955;28;96239;-63
2023/09/19 13:32:43;;;;;;;;;6.00;5.00;;;;;23.05;100.00;98308.69;6235917;27;96420;-63
2023/09/19 13:35:46;;;;;;;;;7.00;5.20;;;;;23.01;100.00;98303.00;6251294;27;96294;-63
2023/09/19 13:38:49;;;;;;;;;7.00;6.00;;;;;23.07;100.00;98309.97;6242227;27;96404;-63
2023/09/19 13:41:52;;;;;;;;;5.00;4.00;;;;;23.01;100.00;98311.25;6246411;28;96284;-63
2023/09/19 13:44:57;;;;;;;;;6.00;6.00;;;;;23.05;100.00;98315.00;6240942;27;97321;-62
2023/09/19 13:48:01;;;;;;;;;6.40;5.00;;;;;23.09;100.00;98312.41;6261310;27;96289;-63
2023/09/19 13:51:05;;;;;;;;;7.00;5.40;;;;;23.12;100.00;98303.53;6276883;27;96428;-64
2023/09/19 13:54:09;;;;;;;;;5.00;5.00;;;;;23.19;100.00;98299.19;6276312;27;96346;-64
2023/09/19 13:57:12;;;;;;;;;6.00;6.00;;;;;23.33;100.00;98299.06;6277447;27;96249;-63
2023/09/19 14:00:17;;;;;;;;;5.60;5.60;;;;;23.45;100.00;98298.50;6254474;27;96994;-63
2023/09/19 14:03:21;;;;;;;;;6.40;6.40;;;;;23.67;100.00;98293.69;6251236;28;96931;-63
2023/09/19 14:06:25;;;;;;;;;7.00;7.00;;;;;23.97;100.00;98300.19;6235562;28;96703;-63
2023/09/19 14:09:28;;;;;;;;;6.00;5.00;;;;;24.14;100.00;98296.66;6251516;27;96357;-63
2023/09/19 14:12:32;;;;;;;;;6.00;6.00;;;;;24.30;100.00;98303.28;6280126;27;96304;-63
2023/09/19 14:15:39;;;;;;;;;6.20;5.20;;;;;24.45;100.00;98300.03;6279689;27;96869;-63
2023/09/19 14:18:42;;;;;;;;;6.00;5.00;;;;;24.53;100.00;98304.72;6260934;27;97367;-63